Time;durP1;ratioP1;P1;durP2;ratioP2;P2;SDS_P1;SDS_P2;PMS_P1;PMS_P2;Temp;Humidity;BMP_temperature;BMP_pressure;BME280_temperature;BME280_humidity;BME280_pressure;Samples;Min_cycle;Max_cycle;Signal;HPM_P1;HPM_P2
2023/12/07 00:01:34;;;;;;;12.10;7.50;;;;;;;-1.78;72.76;99420.32;105359;1258;71483;-28
2023/12/07 00:11:51;;;;;;;13.30;7.90;;;;;;;-2.38;75.49;99426.30;102626;1295;599981;-28
2023/12/07 00:14:19;;;;;;;11.20;7.00;;;;;;;-1.73;73.63;99434.84;104805;1272;61215;-28
2023/12/07 00:24:30;;;;;;;11.40;7.00;;;;;;;-2.06;73.69;99432.88;102628;1294;600142;-28
2023/12/07 00:26:58;;;;;;;12.50;7.50;;;;;;;-2.28;74.06;99433.92;105086;1267;61133;-28
2023/12/07 00:37:04;;;;;;;17.70;10.40;;;;;;;-1.62;72.47;99440.52;102673;1292;599489;-28
2023/12/07 00:39:32;;;;;;;16.50;9.20;;;;;;;-1.77;72.57;99445.48;105550;1257;61125;-28
2023/12/07 00:42:00;;;;;;;11.50;7.30;;;;;;;-1.95;72.69;99441.14;105441;1262;61540;-28
2023/12/07 00:44:28;;;;;;;13.20;8.10;;;;;;;-2.12;73.65;99443.26;105158;1257;71309;-28
2023/12/07 00:46:56;;;;;;;10.80;7.00;;;;;;;-2.27;74.07;99444.27;105409;1262;74301;-29
2023/12/07 00:49:24;;;;;;;10.70;6.70;;;;;;;-2.44;74.52;99440.20;105518;1257;72653;-28
2023/12/07 00:51:52;;;;;;;14.90;7.30;;;;;;;-2.56;75.25;99442.17;102928;1257;3587995;-28
2023/12/07 00:54:20;;;;;;;11.00;6.50;;;;;;;-2.02;74.38;99449.14;105319;1254;61051;-28
2023/12/07 00:56:47;;;;;;;11.60;6.50;;;;;;;-1.71;72.68;99453.82;105492;1260;72152;-28
2023/12/07 00:59:15;;;;;;;13.20;4.90;;;;;;;-1.77;72.15;99446.33;105592;1254;74281;-28
2023/12/07 01:01:43;;;;;;;11.90;7.30;;;;;;;-1.96;72.57;99448.50;105625;1256;71366;-28
2023/12/07 01:04:11;;;;;;;12.30;7.80;;;;;;;-2.18;73.21;99448.83;105633;1257;61180;-28
2023/12/07 01:06:39;;;;;;;11.30;5.80;;;;;;;-2.36;74.02;99448.21;105523;1254;61116;-28
2023/12/07 01:09:08;;;;;;;12.00;7.20;;;;;;;-2.58;74.54;99443.91;105562;1261;73044;-28
2023/12/07 01:19:16;;;;;;;12.10;7.70;;;;;;;-1.76;72.03;99441.73;102733;1295;599471;-28
2023/12/07 01:21:44;;;;;;;13.00;8.30;;;;;;;-2.08;72.60;99436.85;105087;1269;61157;-28
2023/12/07 01:24:12;;;;;;;22.30;9.70;;;;;;;-2.29;73.03;99440.22;104843;1272;61144;-28
2023/12/07 01:26:43;;;;;;;12.00;8.10;;;;;;;-2.51;73.79;99443.76;104860;1270;72179;-28
2023/12/07 01:29:11;;;;;;;18.20;10.20;;;;;;;-2.71;74.16;99439.92;104854;1273;74297;-28
2023/12/07 01:31:40;;;;;;;15.80;9.00;;;;;;;-2.71;75.27;99445.54;105080;1263;72640;-29
2023/12/07 01:40:22;;;;;;;11.80;6.20;;;;;;;-1.96;71.70;99450.88;102645;1289;599922;-28
2023/12/07 01:42:51;;;;;;;12.20;8.20;;;;;;;-2.26;72.39;99449.69;105056;1265;62782;-28
2023/12/07 01:45:19;;;;;;;15.90;9.40;;;;;;;-2.51;73.07;99449.70;104788;1267;61155;-29
2023/12/07 01:47:49;;;;;;;13.80;9.40;;;;;;;-2.70;73.67;99448.59;104935;1270;72293;-28
2023/12/07 01:50:18;;;;;;;11.70;7.60;;;;;;;-2.89;74.21;99441.81;104891;1264;74334;-28
2023/12/07 01:52:51;;;;;;;21.70;12.80;;;;;;;-2.83;74.84;99440.67;104850;1264;3665112;-28
2023/12/07 02:02:57;;;;;;;11.30;6.80;;;;;;;-2.45;72.38;99437.51;102610;1295;600172;-26
2023/12/07 02:12:14;;;;;;;10.20;7.00;;;;;;;-3.08;74.99;99448.47;102614;1294;600718;-28
2023/12/07 02:21:42;;;;;;;12.50;7.40;;;;;;;-2.18;72.37;99438.96;102604;1292;599885;-28
2023/12/07 02:24:11;;;;;;;12.00;6.70;;;;;;;-2.46;72.32;99438.55;104637;1269;61143;-28
2023/12/07 02:26:38;;;;;;;10.70;6.90;;;;;;;-2.77;72.96;99439.20;104811;1266;61062;-28
2023/12/07 02:36:46;;;;;;;19.50;10.20;;;;;;;-2.91;74.01;99439.80;102707;1290;599498;-28
2023/12/07 02:39:14;;;;;;;11.80;6.90;;;;;;;-2.79;72.72;99443.83;105063;1264;61133;-28
2023/12/07 02:49:20;;;;;;;17.70;10.80;;;;;;;-3.76;75.01;99434.05;102641;1294;600078;-28
2023/12/07 02:59:27;;;;;;;12.70;6.10;;;;;;;-3.23;73.64;99446.38;102731;1290;600722;-28
2023/12/07 03:05:39;;;;;;;8.10;6.20;;;;;;;-3.95;74.53;99448.60;105574;1257;61043;-29
2023/12/07 03:08:07;;;;;;;12.00;6.70;;;;;;;-4.20;75.40;99455.09;105283;1258;72510;-27
2023/12/07 03:10:35;;;;;;;10.20;7.30;;;;;;;-4.40;76.07;99455.36;105441;1257;74291;-27
2023/12/07 03:13:02;;;;;;;16.70;7.50;;;;;;;-4.38;76.66;99457.02;102950;1257;3512968;-27
2023/12/07 03:15:30;;;;;;;22.00;7.90;;;;;;;-3.77;75.29;99462.58;105592;1255;61106;-27
2023/12/07 03:17:58;;;;;;;12.80;7.70;;;;;;;-3.44;73.68;99463.39;105624;1260;61201;-27
2023/12/07 03:20:26;;;;;;;13.90;7.10;;;;;;;-3.55;73.35;99461.04;105605;1257;72269;-27
2023/12/07 03:22:54;;;;;;;9.20;6.20;;;;;;;-3.76;74.02;99462.05;105551;1255;74368;-27
2023/12/07 03:25:22;;;;;;;18.10;9.10;;;;;;;-4.04;74.74;99457.73;105603;1260;71650;-29
2023/12/07 03:27:50;;;;;;;10.50;7.40;;;;;;;-4.28;75.24;99455.55;105549;1263;61233;-27
2023/12/07 03:30:17;;;;;;;10.30;7.70;;;;;;;-4.57;76.05;99450.67;105532;1256;61141;-27
2023/12/07 03:32:45;;;;;;;12.10;8.10;;;;;;;-4.78;77.36;99454.65;105651;1261;73059;-26
2023/12/07 03:35:13;;;;;;;12.10;7.80;;;;;;;-4.45;77.15;99450.67;105599;1257;74337;-27
2023/12/07 03:37:41;;;;;;;16.10;8.80;;;;;;;-3.92;75.47;99454.34;105540;1257;72657;-27
2023/12/07 03:40:10;;;;;;;9.20;5.20;;;;;;;-3.90;74.62;99459.89;105710;1251;61113;-27
2023/12/07 03:50:37;;;;;;;5.50;4.40;;;;;;;-4.65;76.95;99475.86;102667;1295;616928;-26
2023/12/07 03:53:04;;;;;;;12.80;6.00;;;;;;;-4.85;77.11;99479.66;104964;1269;61065;-28
2023/12/07 03:55:31;;;;;;;9.80;5.90;;;;;;;-4.99;78.23;99480.13;104964;1269;61190;-29
2023/12/07 03:57:58;;;;;;;12.40;7.40;;;;;;;-4.63;78.20;99478.37;104958;1266;72166;-29
2023/12/07 04:00:25;;;;;;;11.50;6.80;;;;;;;-4.00;76.26;99476.66;104929;1267;74229;-29
2023/12/07 04:02:52;;;;;;;9.80;5.70;;;;;;;-3.84;75.06;99468.11;102303;1267;3621364;-30
2023/12/07 04:05:19;;;;;;;13.60;8.80;;;;;;;-3.95;75.03;99465.56;104858;1270;61199;-29
2023/12/07 04:07:47;;;;;;;7.90;5.10;;;;;;;-4.16;75.46;99466.23;105188;1267;61161;-29
2023/12/07 04:10:14;;;;;;;7.50;4.80;;;;;;;-4.36;76.15;99469.21;105200;1268;71986;-29
2023/12/07 04:12:41;;;;;;;8.80;4.90;;;;;;;-4.53;76.64;99474.87;105158;1267;74372;-29
2023/12/07 04:15:09;;;;;;;13.00;8.50;;;;;;;-4.74;77.27;99473.25;105225;1267;72455;-29
2023/12/07 04:17:36;;;;;;;12.90;8.10;;;;;;;-4.56;77.77;99473.38;105261;1260;61951;-29
2023/12/07 04:20:04;;;;;;;18.50;6.70;;;;;;;-3.99;76.21;99466.80;105213;1264;61161;-29
2023/12/07 04:22:32;;;;;;;10.70;7.10;;;;;;;-3.72;74.87;99466.40;105227;1260;73147;-29
2023/12/07 04:24:59;;;;;;;15.60;8.80;;;;;;;-3.88;74.90;99463.25;105192;1261;74117;-29
2023/12/07 04:27:26;;;;;;;10.10;6.00;;;;;;;-4.09;75.45;99460.52;105199;1260;72672;-29
2023/12/07 04:29:53;;;;;;;12.50;7.70;;;;;;;-4.18;75.72;99464.89;105274;1260;60992;-29
2023/12/07 04:32:20;;;;;;;8.80;6.10;;;;;;;-4.35;76.00;99472.58;105218;1266;61164;-29
2023/12/07 04:34:48;;;;;;;16.10;8.50;;;;;;;-4.55;76.58;99477.09;105235;1265;72937;-29
2023/12/07 04:37:15;;;;;;;9.30;5.20;;;;;;;-4.72;77.54;99476.77;105242;1262;74335;-29
2023/12/07 04:39:42;;;;;;;13.20;8.00;;;;;;;-4.48;77.81;99482.08;105209;1262;72484;-28
2023/12/07 04:42:09;;;;;;;16.60;9.40;;;;;;;-3.70;76.00;99480.95;105231;1260;62784;-29
2023/12/07 04:44:36;;;;;;;16.40;8.80;;;;;;;-3.30;74.68;99483.35;105264;1264;61141;-29
2023/12/07 04:47:04;;;;;;;19.30;11.30;;;;;;;-3.40;74.16;99487.76;105222;1260;73594;-29
2023/12/07 04:49:31;;;;;;;20.60;10.30;;;;;;;-3.77;74.92;99486.49;105138;1260;74314;-29
2023/12/07 04:51:58;;;;;;;11.60;6.90;;;;;;;-3.94;75.36;99482.18;105066;1264;72363;-29
2023/12/07 04:54:27;;;;;;;16.50;9.50;;;;;;;-4.16;76.28;99483.86;105111;1260;61068;-29
2023/12/07 04:56:54;;;;;;;19.30;10.00;;;;;;;-4.59;77.62;99478.83;105119;1260;61119;-29
2023/12/07 04:59:21;;;;;;;13.40;6.80;;;;;;;-4.64;77.98;99475.33;105100;1261;73026;-29
2023/12/07 05:01:48;;;;;;;12.50;5.90;;;;;;;-4.38;78.11;99472.95;105242;1263;74737;-29
2023/12/07 05:04:15;;;;;;;11.70;6.90;;;;;;;-3.67;75.89;99471.74;105255;1261;72476;-29
2023/12/07 05:06:42;;;;;;;21.50;10.20;;;;;;;-3.59;74.79;99473.15;105229;1260;61125;-28
2023/12/07 05:09:09;;;;;;;12.70;7.90;;;;;;;-3.58;74.31;99472.46;105176;1261;61161;-28
2023/12/07 05:11:37;;;;;;;13.30;8.30;;;;;;;-3.85;74.92;99476.27;105118;1261;73133;-28
2023/12/07 05:14:04;;;;;;;12.90;7.80;;;;;;;-4.14;75.80;99474.34;105354;1256;74316;-28
2023/12/07 05:16:31;;;;;;;27.10;13.30;;;;;;;-4.57;76.88;99476.93;105236;1257;72457;-28
2023/12/07 05:18:58;;;;;;;17.20;9.20;;;;;;;-4.83;78.29;99476.91;105316;1257;61154;-28
2023/12/07 05:21:26;;;;;;;10.90;6.00;;;;;;;-4.49;78.39;99471.73;105298;1260;61167;-28
2023/12/07 05:23:52;;;;;;;13.40;7.00;;;;;;;-4.12;76.62;99477.52;105381;1257;72961;-28
2023/12/07 05:26:21;;;;;;;12.70;7.10;;;;;;;-4.09;76.20;99470.20;105488;1257;74394;-28
2023/12/07 05:28:48;;;;;;;16.60;9.10;;;;;;;-4.25;76.46;99473.30;105560;1257;73062;-28
2023/12/07 05:31:18;;;;;;;14.20;8.50;;;;;;;-4.47;77.15;99473.43;105595;1256;61066;-28
2023/12/07 05:33:46;;;;;;;19.20;12.00;;;;;;;-4.69;77.62;99476.24;105240;1264;61061;-28
2023/12/07 05:36:13;;;;;;;14.10;7.90;;;;;;;-4.79;78.57;99476.36;105585;1258;71871;-28
2023/12/07 05:38:40;;;;;;;14.10;8.20;;;;;;;-4.43;78.10;99474.90;105604;1257;74245;-28
2023/12/07 05:41:08;;;;;;;11.10;7.50;;;;;;;-4.12;76.97;99474.31;105619;1256;72636;-28
2023/12/07 05:43:35;;;;;;;18.20;8.90;;;;;;;-4.15;76.40;99477.39;105498;1256;61010;-28
2023/12/07 05:46:04;;;;;;;11.60;6.90;;;;;;;-4.37;76.67;99478.20;105538;1260;61168;-28
2023/12/07 05:48:32;;;;;;;14.20;7.10;;;;;;;-4.67;77.26;99484.52;105306;1256;72892;-28
2023/12/07 05:50:59;;;;;;;13.70;8.20;;;;;;;-4.84;78.17;99481.50;105214;1257;74327;-28
2023/12/07 05:53:26;;;;;;;14.70;10.00;;;;;;;-4.94;78.87;99471.63;105211;1256;71740;-28
2023/12/07 05:55:54;;;;;;;11.30;7.60;;;;;;;-4.43;78.11;99467.43;105215;1256;61041;-28
2023/12/07 05:58:21;;;;;;;9.60;5.80;;;;;;;-4.14;76.82;99476.20;105178;1264;61124;-28
2023/12/07 06:00:49;;;;;;;18.60;9.50;;;;;;;-4.11;76.47;99483.77;105451;1256;73004;-28
2023/12/07 06:03:16;;;;;;;15.20;9.70;;;;;;;-4.34;76.95;99493.42;105479;1257;75976;-28
2023/12/07 06:05:45;;;;;;;20.60;9.70;;;;;;;-4.64;77.89;99496.67;105366;1260;73192;-28
2023/12/07 06:08:12;;;;;;;22.90;10.80;;;;;;;-4.90;78.85;99498.34;105565;1257;61119;-28
2023/12/07 06:10:39;;;;;;;20.00;9.30;;;;;;;-5.13;79.89;99493.66;105613;1257;61046;-28
2023/12/07 06:13:06;;;;;;;21.30;11.10;;;;;;;-5.05;80.42;99499.85;105548;1259;73496;-28
2023/12/07 06:15:34;;;;;;;20.30;9.60;;;;;;;-4.54;78.84;99498.08;105581;1257;74139;-28
2023/12/07 06:18:01;;;;;;;19.70;10.00;;;;;;;-4.23;76.99;99500.56;105359;1256;72587;-28
2023/12/07 06:20:28;;;;;;;19.30;11.10;;;;;;;-4.37;76.77;99497.36;105245;1255;61065;-28
2023/12/07 06:22:55;;;;;;;16.70;8.80;;;;;;;-4.59;77.58;99495.77;105352;1260;61097;-28
2023/12/07 06:25:22;;;;;;;16.70;10.40;;;;;;;-5.00;78.68;99493.36;105580;1256;73650;-28
2023/12/07 06:27:49;;;;;;;18.60;11.30;;;;;;;-5.37;80.40;99498.29;105552;1256;74108;-28
2023/12/07 06:30:16;;;;;;;12.70;6.50;;;;;;;-5.41;81.06;99502.39;105579;1260;72648;-28
2023/12/07 06:32:43;;;;;;;11.40;7.10;;;;;;;-4.77;79.34;99510.89;105559;1256;61020;-29
2023/12/07 06:35:14;;;;;;;16.70;10.30;;;;;;;-4.39;77.41;99515.02;105572;1256;61093;-28
2023/12/07 06:37:41;;;;;;;10.90;6.70;;;;;;;-4.40;76.49;99517.56;105466;1260;72997;-28
2023/12/07 06:40:09;;;;;;;23.10;12.60;;;;;;;-4.71;77.41;99518.96;105242;1256;74217;-28
2023/12/07 06:42:36;;;;;;;16.70;8.30;;;;;;;-4.96;78.40;99523.81;105375;1256;72846;-28
2023/12/07 06:45:05;;;;;;;24.50;13.20;;;;;;;-4.94;78.18;99528.02;105595;1256;61058;-28
2023/12/07 06:47:33;;;;;;;19.70;9.60;;;;;;;-4.85;78.61;99526.75;105518;1256;61123;-28
2023/12/07 06:50:02;;;;;;;14.20;8.70;;;;;;;-4.29;77.31;99525.08;105593;1256;73045;-28
2023/12/07 06:52:31;;;;;;;8.90;5.10;;;;;;;-4.26;75.78;99522.48;105594;1256;74321;-28
2023/12/07 06:54:58;;;;;;;9.60;6.10;;;;;;;-4.29;76.01;99520.48;105562;1257;72550;-28
2023/12/07 06:57:25;;;;;;;19.70;9.50;;;;;;;-4.52;76.21;99523.84;105624;1257;61099;-28
2023/12/07 06:59:53;;;;;;;16.80;8.50;;;;;;;-4.63;76.50;99530.90;105559;1257;61652;-28
2023/12/07 07:02:20;;;;;;;15.70;7.30;;;;;;;-4.77;76.77;99538.85;105619;1257;73130;-28
2023/12/07 07:04:48;;;;;;;10.80;6.20;;;;;;;-4.91;77.56;99540.87;105526;1257;74215;-28
2023/12/07 07:07:16;;;;;;;12.50;6.10;;;;;;;-4.52;77.24;99543.99;105602;1256;72472;-28
2023/12/07 07:09:43;;;;;;;13.00;7.00;;;;;;;-4.01;75.56;99541.31;105596;1257;60951;-28
2023/12/07 07:12:10;;;;;;;17.00;9.30;;;;;;;-3.95;74.58;99539.02;105354;1256;61175;-28
2023/12/07 07:14:38;;;;;;;14.40;8.10;;;;;;;-4.21;74.67;99542.09;105557;1256;73004;-28
2023/12/07 07:17:05;;;;;;;14.50;7.70;;;;;;;-4.44;75.57;99551.36;105590;1257;74420;-28
2023/12/07 07:19:32;;;;;;;16.70;9.50;;;;;;;-4.64;76.10;99549.73;105213;1256;72643;-28
2023/12/07 07:21:59;;;;;;;14.50;7.40;;;;;;;-4.94;76.83;99553.94;105242;1257;61096;-28
2023/12/07 07:24:27;;;;;;;9.40;5.70;;;;;;;-4.82;77.32;99555.48;105184;1261;61167;-28
2023/12/07 07:26:55;;;;;;;16.20;9.40;;;;;;;-4.11;75.69;99560.27;105559;1253;73031;-29
2023/12/07 07:29:22;;;;;;;11.90;6.20;;;;;;;-3.98;74.82;99560.78;105567;1253;74633;-28
2023/12/07 07:31:49;;;;;;;17.90;7.70;;;;;;;-3.91;74.24;99567.29;105859;1253;72452;-28
2023/12/07 07:34:17;;;;;;;18.40;9.10;;;;;;;-4.10;74.24;99570.09;105735;1253;61061;-28
2023/12/07 07:36:44;;;;;;;8.00;6.00;;;;;;;-4.31;74.64;99573.23;105632;1256;61132;-28
2023/12/07 07:39:13;;;;;;;15.40;8.60;;;;;;;-4.41;75.15;99573.35;105843;1253;73158;-27
2023/12/07 07:41:41;;;;;;;13.40;7.50;;;;;;;-4.65;75.58;99572.27;105535;1257;74291;-27
2023/12/07 07:44:08;;;;;;;17.10;7.20;;;;;;;-4.79;76.44;99571.40;105643;1254;72489;-28
2023/12/07 07:46:35;;;;;;;13.80;8.70;;;;;;;-4.11;75.55;99568.58;105670;1253;60984;-27
2023/12/07 07:49:03;;;;;;;13.70;6.80;;;;;;;-3.72;73.70;99564.65;105663;1253;61100;-27
2023/12/07 07:51:32;;;;;;;13.10;7.40;;;;;;;-3.83;73.28;99563.12;105635;1253;72813;-27
2023/12/07 07:53:59;;;;;;;6.90;3.60;;;;;;;-4.02;73.70;99563.73;105758;1253;74198;-28
2023/12/07 07:56:26;;;;;;;11.70;8.40;;;;;;;-4.25;74.12;99572.32;105680;1253;72949;-27
2023/12/07 07:58:53;;;;;;;12.50;7.90;;;;;;;-4.49;74.91;99579.20;105698;1256;61134;-27
2023/12/07 08:01:21;;;;;;;12.20;7.10;;;;;;;-4.67;75.44;99578.05;105811;1254;61147;-27
2023/12/07 08:03:48;;;;;;;14.90;8.00;;;;;;;-4.71;76.37;99579.28;105838;1253;74271;-27
2023/12/07 08:06:15;;;;;;;9.10;6.60;;;;;;;-4.13;75.18;99585.40;105593;1253;74746;-29
2023/12/07 08:08:42;;;;;;;15.40;8.20;;;;;;;-3.70;73.52;99582.62;105664;1253;72731;-27
2023/12/07 08:11:09;;;;;;;10.70;6.50;;;;;;;-4.05;73.67;99583.10;105748;1253;61439;-27
2023/12/07 08:13:37;;;;;;;12.30;6.50;;;;;;;-4.05;73.46;99588.35;105764;1257;61137;-27
2023/12/07 08:16:09;;;;;;;13.60;9.00;;;;;;;-4.21;73.98;99592.45;105817;1254;73792;-27
2023/12/07 08:18:36;;;;;;;12.40;8.80;;;;;;;-4.34;74.55;99587.17;105595;1260;72408;-27
2023/12/07 08:21:04;;;;;;;18.40;10.30;;;;;;;-4.58;74.83;99584.24;105619;1253;71388;-28
2023/12/07 08:23:31;;;;;;;13.30;8.20;;;;;;;-4.43;75.48;99584.05;105601;1252;61224;-27
2023/12/07 08:25:58;;;;;;;13.00;7.10;;;;;;;-3.92;74.17;99587.83;105740;1253;61048;-27
2023/12/07 08:28:25;;;;;;;9.80;5.20;;;;;;;-3.79;73.30;99591.22;105854;1253;73831;-27
2023/12/07 08:30:52;;;;;;;8.30;5.80;;;;;;;-3.78;72.90;99588.33;105561;1253;74373;-27
2023/12/07 08:33:19;;;;;;;17.20;9.40;;;;;;;-3.94;73.01;99593.79;105803;1253;72432;-27
2023/12/07 08:35:49;;;;;;;18.20;8.40;;;;;;;-4.24;74.01;99596.05;105711;1253;61061;-27
2023/12/07 08:38:16;;;;;;;16.40;6.30;;;;;;;-4.39;74.22;99592.66;105603;1257;61173;-28
2023/12/07 08:40:43;;;;;;;24.00;10.40;;;;;;;-4.65;75.48;99585.31;105652;1253;74251;-28
2023/12/07 08:43:10;;;;;;;13.00;6.00;;;;;;;-4.35;75.54;99581.41;105750;1253;74811;-28
2023/12/07 08:45:38;;;;;;;16.50;8.10;;;;;;;-3.59;73.27;99583.64;105557;1253;73987;-29
2023/12/07 08:48:05;;;;;;;12.90;6.60;;;;;;;-3.40;72.01;99581.84;105863;1253;61200;-29
2023/12/07 08:50:33;;;;;;;14.10;8.30;;;;;;;-3.64;72.18;99587.45;105927;1257;61171;-29
2023/12/07 08:53:00;;;;;;;17.30;9.30;;;;;;;-3.80;72.65;99581.56;105871;1253;73857;-29
2023/12/07 08:55:32;;;;;;;12.60;7.90;;;;;;;-3.98;73.11;99582.67;105722;1253;73596;-29
2023/12/07 08:58:00;;;;;;;21.40;9.70;;;;;;;-4.19;73.72;99578.35;105881;1253;71429;-29
2023/12/07 09:00:28;;;;;;;19.10;9.10;;;;;;;-4.28;74.35;99569.31;105628;1253;61077;-29
2023/12/07 09:02:55;;;;;;;23.30;11.20;;;;;;;-4.21;74.29;99566.16;105653;1254;61043;-30
2023/12/07 09:05:22;;;;;;;7.60;2.90;;;;;;;-4.09;74.46;99560.23;105723;1253;73930;-28
2023/12/07 09:07:50;;;;;;;13.00;8.10;;;;;;;-3.28;72.01;99562.61;105623;1253;74408;-29
2023/12/07 09:10:17;;;;;;;11.10;7.20;;;;;;;-2.92;70.28;99563.36;105702;1257;72761;-29
2023/12/07 09:12:44;;;;;;;9.20;4.60;;;;;;;-2.83;69.60;99561.33;105790;1253;61158;-27
2023/12/07 09:15:12;;;;;;;10.10;6.10;;;;;;;-2.96;69.69;99563.44;105782;1253;61124;-27
2023/12/07 09:17:39;;;;;;;8.00;4.60;;;;;;;-3.27;70.02;99560.56;105744;1253;75067;-30
2023/12/07 09:20:12;;;;;;;10.50;5.30;;;;;;;-3.44;70.89;99559.63;105681;1257;77437;-28
2023/12/07 09:22:43;;;;;;;11.00;7.10;;;;;;;-3.57;71.15;99559.66;105546;1253;72052;-28
2023/12/07 09:25:11;;;;;;;7.50;5.20;;;;;;;-3.82;71.62;99558.52;105640;1260;61715;-27
2023/12/07 09:27:39;;;;;;;17.30;7.60;;;;;;;-4.02;72.41;99552.69;105764;1256;61161;-29
2023/12/07 09:30:12;;;;;;;12.60;6.30;;;;;;;-3.87;72.77;99553.50;105669;1258;74147;-29
2023/12/07 09:32:42;;;;;;;10.30;5.20;;;;;;;-3.26;71.23;99548.15;105572;1253;74365;-29
2023/12/07 09:35:18;;;;;;;12.80;7.50;;;;;;;-3.20;70.25;99548.90;105679;1257;72724;-29
2023/12/07 09:37:46;;;;;;;12.90;7.30;;;;;;;-3.11;69.79;99545.69;105822;1253;61131;-29
2023/12/07 09:40:17;;;;;;;13.00;6.50;;;;;;;-3.38;70.29;99544.27;105895;1258;61079;-27
2023/12/07 09:42:45;;;;;;;11.00;6.40;;;;;;;-3.45;70.39;99543.55;105841;1253;72881;-27
2023/12/07 09:45:14;;;;;;;17.90;9.60;;;;;;;-3.61;71.03;99546.49;105865;1253;74403;-27
2023/12/07 09:47:41;;;;;;;12.30;7.10;;;;;;;-3.67;71.74;99533.70;105723;1253;73842;-27
2023/12/07 09:50:09;;;;;;;8.90;5.60;;;;;;;-3.54;71.24;99532.81;105684;1253;61080;-27
2023/12/07 09:52:36;;;;;;;15.60;7.00;;;;;;;-3.52;71.13;99527.01;105566;1256;61274;-27
2023/12/07 09:55:05;;;;;;;12.00;5.70;;;;;;;-3.12;70.73;99525.31;105570;1253;73645;-28
2023/12/07 09:57:33;;;;;;;3.20;1.60;;;;;;;-2.30;68.69;99530.04;105705;1257;74518;-27
2023/12/07 10:00:01;;;;;;;11.70;6.90;;;;;;;-2.05;67.30;99528.65;105711;1257;70497;-27
2023/12/07 10:02:37;;;;;;;10.70;7.60;;;;;;;-2.23;66.63;99525.48;105881;1253;61075;-28
2023/12/07 10:05:13;;;;;;;8.00;5.90;;;;;;;-2.56;67.61;99520.20;105662;1253;61071;-27
2023/12/07 10:07:41;;;;;;;14.70;6.60;;;;;;;-2.82;68.02;99524.08;105681;1253;72744;-27
2023/12/07 10:10:11;;;;;;;8.40;5.40;;;;;;;-2.97;68.74;99524.20;105738;1253;75538;-27
2023/12/07 10:12:54;;;;;;;12.30;6.20;;;;;;;-3.11;69.13;99524.64;105729;1253;71498;-28
2023/12/07 10:15:23;;;;;;;11.00;6.40;;;;;;;-3.26;69.66;99530.15;105745;1253;61112;-27
2023/12/07 10:17:53;;;;;;;14.00;8.10;;;;;;;-3.62;70.78;99530.05;105708;1260;61184;-27
2023/12/07 10:20:25;;;;;;;14.90;9.30;;;;;;;-3.83;72.36;99527.33;105718;1253;73598;-27
2023/12/07 10:23:07;;;;;;;7.90;4.80;;;;;;;-3.73;72.11;99527.84;105705;1253;73559;-27
2023/12/07 10:25:38;;;;;;;15.30;8.40;;;;;;;-2.77;69.98;99524.84;105827;1253;72263;-27
2023/12/07 10:28:07;;;;;;;15.00;10.00;;;;;;;-2.56;68.07;99521.56;105677;1259;61171;-27
2023/12/07 10:30:35;;;;;;;21.30;8.90;;;;;;;-2.67;68.22;99517.86;105716;1258;61260;-27
2023/12/07 10:33:04;;;;;;;16.40;9.20;;;;;;;-2.60;68.07;99511.79;105591;1253;74283;-28
2023/12/07 10:35:31;;;;;;;17.80;10.10;;;;;;;-3.07;68.64;99509.25;105832;1253;73157;-27
2023/12/07 10:37:59;;;;;;;24.70;13.80;;;;;;;-3.36;70.03;99508.58;105675;1253;73139;-27
2023/12/07 10:40:26;;;;;;;24.40;11.10;;;;;;;-3.28;70.46;99506.73;105521;1253;61145;-27
2023/12/07 10:42:57;;;;;;;15.80;9.30;;;;;;;-3.46;70.59;99506.52;105547;1256;61211;-28
2023/12/07 10:45:29;;;;;;;16.50;9.30;;;;;;;-3.77;72.51;99510.25;105490;1253;74118;-28
2023/12/07 10:48:09;;;;;;;19.20;9.10;;;;;;;-3.54;71.52;99512.10;105589;1253;75060;-28
2023/12/07 10:50:41;;;;;;;17.50;10.50;;;;;;;-3.67;72.32;99503.66;105657;1253;72869;-28
2023/12/07 10:53:10;;;;;;;21.40;11.80;;;;;;;-3.48;71.58;99510.30;105656;1254;61197;-28
2023/12/07 10:55:52;;;;;;;17.70;9.40;;;;;;;-3.51;71.27;99509.50;105718;1253;61196;-28
2023/12/07 10:58:19;;;;;;;17.80;9.30;;;;;;;-3.40;71.46;99501.18;105362;1258;75068;-28
2023/12/07 11:00:46;;;;;;;15.50;9.20;;;;;;;-3.01;69.90;99498.80;105699;1253;75866;-28
2023/12/07 11:03:18;;;;;;;10.10;7.20;;;;;;;-3.07;70.28;99494.31;105909;1253;74106;-28
2023/12/07 11:05:50;;;;;;;16.20;10.10;;;;;;;-2.89;69.15;99487.20;105501;1259;61265;-28
2023/12/07 11:08:50;;;;;;;12.30;8.40;;;;;;;-2.86;68.88;99487.98;105687;1258;61193;-28
2023/12/07 11:11:31;;;;;;;17.10;9.80;;;;;;;-3.08;69.12;99484.13;105744;1258;73921;-28
2023/12/07 11:14:02;;;;;;;18.20;9.10;;;;;;;-3.46;71.08;99484.11;105691;1253;73343;-28
2023/12/07 11:16:36;;;;;;;24.40;10.70;;;;;;;-3.36;70.88;99481.60;105631;1259;71961;-28
2023/12/07 11:19:07;;;;;;;27.20;14.70;;;;;;;-3.70;71.88;99479.77;105584;1253;61119;-28
2023/12/07 11:21:38;;;;;;;74.60;38.80;;;;;;;-3.83;72.75;99480.66;105635;1257;61166;-28
2023/12/07 11:24:05;;;;;;;36.50;17.50;;;;;;;-4.06;73.94;99483.20;105688;1253;74259;-28
2023/12/07 11:26:32;;;;;;;21.50;11.70;;;;;;;-3.90;73.48;99479.23;105555;1256;74322;-28
2023/12/07 11:29:00;;;;;;;15.30;8.80;;;;;;;-3.91;73.20;99476.71;105794;1257;71890;-28
2023/12/07 11:31:27;;;;;;;18.00;9.10;;;;;;;-3.27;72.06;99475.80;105874;1253;61055;-28
2023/12/07 11:33:54;;;;;;;20.70;11.80;;;;;;;-2.92;70.37;99475.17;105547;1257;61058;-28
2023/12/07 11:36:21;;;;;;;25.90;14.40;;;;;;;-3.04;69.75;99472.84;105651;1253;72617;-28
2023/12/07 11:39:01;;;;;;;16.40;9.70;;;;;;;-2.76;69.15;99471.30;105904;1254;73518;-28
2023/12/07 11:41:43;;;;;;;23.00;11.50;;;;;;;-3.46;69.90;99470.70;105878;1253;73993;-28
2023/12/07 11:44:11;;;;;;;19.40;9.90;;;;;;;-3.87;71.89;99476.80;105731;1253;61057;-28
2023/12/07 11:46:38;;;;;;;17.40;9.10;;;;;;;-3.87;72.05;99476.98;105906;1253;61433;-28
2023/12/07 11:49:10;;;;;;;20.00;11.20;;;;;;;-4.01;72.41;99479.05;105870;1253;73988;-28
2023/12/07 11:51:54;;;;;;;21.90;11.40;;;;;;;-4.04;73.05;99475.55;105697;1253;74289;-28
2023/12/07 11:54:27;;;;;;;18.10;9.80;;;;;;;-4.27;73.55;99472.81;105828;1253;72414;-28
2023/12/07 11:56:58;;;;;;;13.70;8.70;;;;;;;-4.36;74.11;99472.25;105732;1253;61061;-28
2023/12/07 11:59:25;;;;;;;23.90;13.50;;;;;;;-4.62;74.92;99469.70;105447;1261;61760;-28
2023/12/07 12:02:02;;;;;;;19.60;10.30;;;;;;;-3.98;73.87;99469.51;105733;1257;73618;-28
2023/12/07 12:04:29;;;;;;;21.00;10.40;;;;;;;-3.20;71.00;99468.05;105796;1252;75074;-28
2023/12/07 12:06:56;;;;;;;25.60;13.30;;;;;;;-3.03;69.42;99467.23;105861;1253;72669;-28
2023/12/07 12:09:24;;;;;;;18.30;10.30;;;;;;;-3.47;69.98;99464.46;105718;1253;61071;-28
2023/12/07 12:12:03;;;;;;;23.50;13.40;;;;;;;-3.83;71.50;99471.84;105721;1258;61054;-28
2023/12/07 12:14:30;;;;;;;25.30;12.80;;;;;;;-4.01;72.34;99474.83;105720;1253;74001;-28
2023/12/07 12:16:57;;;;;;;56.00;27.10;;;;;;;-4.53;73.92;99472.31;105751;1253;74350;-28
2023/12/07 12:19:25;;;;;;;30.90;16.00;;;;;;;-4.64;75.03;99476.68;105862;1253;71557;-28
2023/12/07 12:22:02;;;;;;;44.60;22.20;;;;;;;-4.54;74.96;99474.88;105897;1253;61868;-28
2023/12/07 12:24:34;;;;;;;27.30;14.60;;;;;;;-4.88;75.71;99475.61;105671;1252;61045;-27
2023/12/07 12:27:01;;;;;;;42.50;22.00;;;;;;;-4.80;75.98;99474.67;105723;1253;73937;-28
2023/12/07 12:29:28;;;;;;;37.10;19.00;;;;;;;-4.45;75.70;99474.60;105815;1259;74381;-28
2023/12/07 12:32:05;;;;;;;28.10;13.90;;;;;;;-4.38;74.74;99470.24;105659;1253;73998;-28
2023/12/07 12:34:33;;;;;;;51.20;26.90;;;;;;;-3.93;72.78;99466.73;105705;1252;61118;-28
2023/12/07 12:37:05;;;;;;;26.20;14.80;;;;;;;-4.89;74.76;99469.34;105746;1253;61197;-28
2023/12/07 12:39:32;;;;;;;48.10;27.40;;;;;;;-5.21;76.54;99470.71;105597;1258;73738;-28
2023/12/07 12:42:02;;;;;;;22.40;9.80;;;;;;;-4.94;76.72;99478.55;105877;1253;73438;-28
2023/12/07 12:44:31;;;;;;;26.00;14.90;;;;;;;-5.01;75.87;99476.08;105710;1253;72612;-28
2023/12/07 12:47:10;;;;;;;26.70;13.50;;;;;;;-5.30;77.20;99477.73;105448;1261;61189;-28
2023/12/07 12:49:41;;;;;;;18.50;9.00;;;;;;;-5.23;77.24;99479.38;105550;1254;61221;-28
2023/12/07 12:52:16;;;;;;;17.80;9.30;;;;;;;-5.30;77.29;99479.45;105712;1253;73926;-28
2023/12/07 12:54:43;;;;;;;25.10;12.20;;;;;;;-5.17;77.00;99476.60;105626;1253;72874;-28
2023/12/07 12:57:10;;;;;;;21.40;12.10;;;;;;;-5.25;77.16;99473.81;105574;1259;73104;-28